createdAt,value
2023-02-04T00:00:37.315Z,6.42
2023-02-04T00:03:05.914Z,5.37
2023-02-04T00:05:35.110Z,6.06
2023-02-04T00:08:04.548Z,6.18
2023-02-04T00:10:32.590Z,6.29
2023-02-04T00:13:00.553Z,6.30
2023-02-04T00:15:28.375Z,6.47
2023-02-04T00:17:56.383Z,6.26
2023-02-04T00:20:24.558Z,5.78
2023-02-04T00:22:53.682Z,6.46
2023-02-04T00:25:21.487Z,5.87
2023-02-04T00:27:49.278Z,6.07
2023-02-04T00:30:17.181Z,6.30
2023-02-04T00:32:45.010Z,6.02
2023-02-04T00:35:12.780Z,6.23
2023-02-04T00:37:40.583Z,5.60
2023-02-04T00:40:11.545Z,6.70
2023-02-04T00:42:39.505Z,6.34
2023-02-04T00:45:07.797Z,6.16
2023-02-04T00:47:35.578Z,6.21
2023-02-04T00:50:03.545Z,6.09
2023-02-04T00:52:31.290Z,5.71
2023-02-04T00:54:59.062Z,6.60
2023-02-04T00:57:28.218Z,6.77
2023-02-04T00:59:55.995Z,6.17
2023-02-04T01:02:23.745Z,6.07
2023-02-04T01:04:51.465Z,6.02
2023-02-04T01:07:19.285Z,5.78
2023-02-04T01:09:47.078Z,5.36
2023-02-04T01:12:14.871Z,5.93
2023-02-04T01:14:44.144Z,5.77
2023-02-04T01:17:11.913Z,5.93
2023-02-04T01:19:39.634Z,6.04
2023-02-04T01:22:07.344Z,6.14
2023-02-04T01:24:35.067Z,6.04
2023-02-04T01:27:02.775Z,5.93
2023-02-04T01:29:30.521Z,6.52
2023-02-04T01:31:59.595Z,6.37
2023-02-04T01:34:27.444Z,6.05
2023-02-04T01:36:55.161Z,6.23
2023-02-04T01:39:22.901Z,5.88
2023-02-04T01:41:50.750Z,5.87
2023-02-04T01:44:18.595Z,6.15
2023-02-04T01:46:46.773Z,5.92
2023-02-04T01:49:15.961Z,5.93
2023-02-04T01:51:45.448Z,5.62
2023-02-04T01:54:15.165Z,6.12
2023-02-04T01:56:45.927Z,5.45
2023-02-04T01:59:15.731Z,5.84
2023-02-04T02:01:45.720Z,6.23
2023-02-04T02:04:16.887Z,5.97
2023-02-04T02:06:48.217Z,5.70
2023-02-04T02:09:16.232Z,5.30
2023-02-04T02:11:44.334Z,5.30
2023-02-04T02:14:12.949Z,5.03
2023-02-04T02:16:40.715Z,5.40
2023-02-04T02:19:14.789Z,5.59
2023-02-04T02:21:48.206Z,5.65
2023-02-04T02:24:28.354Z,5.56
2023-02-04T02:26:57.466Z,5.61
2023-02-04T02:29:25.315Z,6.13
2023-02-04T02:31:53.686Z,5.73
2023-02-04T02:34:21.460Z,6.18
2023-02-04T02:36:49.231Z,6.03
2023-02-04T02:39:17.036Z,5.75
2023-02-04T02:41:46.239Z,5.42
2023-02-04T02:44:16.963Z,6.04
2023-02-04T02:46:45.100Z,6.16
2023-02-04T02:49:16.276Z,5.77
2023-02-04T02:51:44.280Z,5.54
2023-02-04T02:54:22.430Z,5.95
2023-02-04T02:56:52.137Z,6.37
2023-02-04T02:59:20.671Z,6.71
2023-02-04T03:01:52.546Z,6.46
2023-02-04T03:04:22.771Z,6.62
2023-02-04T03:06:51.887Z,6.72
2023-02-04T03:09:20.205Z,5.97
2023-02-04T03:11:48.310Z,6.11
2023-02-04T03:14:17.821Z,5.92
2023-02-04T03:16:46.087Z,5.28
2023-02-04T03:19:14.184Z,5.96
2023-02-04T03:21:42.669Z,6.02
2023-02-04T03:24:10.701Z,6.27
2023-02-04T03:26:38.849Z,6.54
2023-02-04T03:29:08.285Z,6.40
2023-02-04T03:31:38.304Z,8.32
2023-02-04T03:34:06.298Z,7.99
2023-02-04T03:36:34.390Z,8.32
2023-02-04T03:39:02.656Z,8.01
2023-02-04T03:41:30.438Z,8.45
2023-02-04T03:43:58.250Z,8.38
2023-02-04T03:46:26.083Z,8.45
2023-02-04T03:48:55.293Z,9.34
2023-02-04T03:51:23.072Z,9.56
2023-02-04T03:53:50.808Z,8.63
2023-02-04T03:56:18.555Z,8.52
2023-02-04T03:58:46.243Z,8.45
2023-02-04T04:01:14.023Z,8.35
2023-02-04T04:03:41.765Z,8.82
2023-02-04T04:06:11.187Z,8.81
2023-02-04T04:08:39.403Z,8.01
2023-02-04T04:11:07.208Z,7.89
2023-02-04T04:13:34.930Z,7.56
2023-02-04T04:16:03.551Z,8.63
2023-02-04T04:18:32.749Z,8.67
2023-02-04T04:21:00.552Z,8.88
2023-02-04T04:23:29.664Z,8.62
2023-02-04T04:25:57.391Z,8.55
2023-02-04T04:28:25.141Z,9.00
2023-02-04T04:30:52.915Z,8.64
2023-02-04T04:33:20.692Z,7.83
2023-02-04T04:35:48.487Z,8.26
2023-02-04T04:38:16.211Z,8.24
2023-02-04T04:40:45.334Z,8.39
2023-02-04T04:43:13.078Z,8.35
2023-02-04T04:45:40.804Z,8.18
2023-02-04T04:48:08.565Z,7.83
2023-02-04T04:50:36.282Z,8.35
2023-02-04T04:53:04.137Z,7.48
2023-02-04T04:55:32.758Z,7.81
2023-02-04T04:58:01.869Z,7.99
2023-02-04T05:00:29.835Z,7.59
2023-02-04T05:02:57.728Z,7.46
2023-02-04T05:05:25.454Z,8.16
2023-02-04T05:07:53.564Z,7.21
2023-02-04T05:10:21.569Z,5.85
2023-02-04T05:12:49.352Z,5.72
2023-02-04T05:15:19.080Z,5.51
2023-02-04T05:17:46.837Z,5.30
2023-02-04T05:20:14.544Z,5.36
2023-02-04T05:22:42.271Z,5.60
2023-02-04T05:25:10.788Z,5.65
2023-02-04T05:27:38.633Z,5.19
2023-02-04T05:30:06.809Z,5.30
2023-02-04T05:32:35.882Z,5.25
2023-02-04T05:35:05.514Z,5.06
2023-02-04T05:37:33.405Z,5.12
2023-02-04T05:40:01.130Z,5.53
2023-02-04T05:42:28.847Z,5.48
2023-02-04T05:44:56.541Z,5.72
2023-02-04T05:47:24.337Z,5.36
2023-02-04T05:49:53.473Z,5.37
2023-02-04T05:52:21.267Z,5.20
2023-02-04T05:54:49.133Z,4.90
2023-02-04T05:57:16.863Z,5.53
2023-02-04T05:59:44.581Z,4.95
2023-02-04T06:02:12.370Z,5.12
2023-02-04T06:04:40.141Z,5.14
2023-02-04T06:07:09.555Z,5.26
2023-02-04T06:09:37.287Z,5.13
2023-02-04T06:12:05.535Z,5.28
2023-02-04T06:14:33.411Z,5.07
2023-02-04T06:17:01.143Z,5.24
2023-02-04T06:19:29.027Z,4.94
2023-02-04T06:21:56.776Z,4.54
2023-02-04T06:24:25.971Z,4.85
2023-02-04T06:26:53.973Z,5.05
2023-02-04T06:29:21.698Z,4.86
2023-02-04T06:31:49.595Z,5.12
2023-02-04T06:34:17.411Z,5.03
2023-02-04T06:36:45.148Z,4.99
2023-02-04T06:39:12.856Z,4.73
2023-02-04T06:41:42.045Z,4.99
2023-02-04T06:44:09.819Z,5.23
2023-02-04T06:46:37.545Z,5.19
2023-02-04T06:49:05.269Z,5.19
2023-02-04T06:51:33.889Z,5.12
2023-02-04T06:54:01.603Z,5.09
2023-02-04T06:56:29.859Z,5.09
2023-02-04T06:58:59.067Z,5.61
2023-02-04T07:01:26.848Z,5.39
2023-02-04T07:03:54.581Z,5.75
2023-02-04T07:06:22.297Z,5.36
2023-02-04T07:08:50.550Z,5.31
2023-02-04T07:11:18.289Z,5.36
2023-02-04T07:13:46.030Z,5.70
2023-02-04T07:16:15.167Z,5.09
2023-02-04T07:18:42.912Z,5.16
2023-02-04T07:21:10.658Z,5.05
2023-02-04T07:23:38.547Z,5.49
2023-02-04T07:26:06.535Z,5.35
2023-02-04T07:28:36.873Z,5.32
2023-02-04T07:31:05.116Z,4.85
2023-02-04T07:33:34.320Z,5.32
2023-02-04T07:36:02.043Z,5.77
2023-02-04T07:38:29.755Z,5.77
2023-02-04T07:40:57.974Z,5.68
2023-02-04T07:43:25.791Z,5.49
2023-02-04T07:45:53.523Z,5.42
2023-02-04T07:48:21.274Z,5.42
2023-02-04T07:50:50.427Z,5.76
2023-02-04T07:53:18.538Z,5.74
2023-02-04T07:55:46.276Z,5.43
2023-02-04T07:58:13.999Z,5.54
2023-02-04T08:00:41.722Z,5.93
2023-02-04T08:03:09.514Z,5.35
2023-02-04T08:05:37.299Z,5.29
2023-02-04T08:08:06.417Z,5.34
2023-02-04T08:10:34.404Z,5.12
2023-02-04T08:13:02.344Z,5.84
2023-02-04T08:15:30.095Z,6.06
2023-02-04T08:17:57.930Z,5.91
2023-02-04T08:20:25.703Z,6.88
2023-02-04T08:22:53.534Z,6.25
2023-02-04T08:25:22.663Z,5.89
2023-02-04T08:27:50.458Z,6.59
2023-02-04T08:30:18.760Z,6.41
2023-02-04T08:32:46.577Z,6.32
2023-02-04T08:35:14.352Z,5.85
2023-02-04T08:37:42.081Z,5.95
2023-02-04T08:40:11.332Z,6.19
2023-02-04T08:42:40.410Z,6.25
2023-02-04T08:45:08.877Z,6.42
2023-02-04T08:47:36.608Z,6.76
2023-02-04T08:50:04.583Z,8.08
2023-02-04T08:52:32.349Z,8.35
2023-02-04T08:55:00.088Z,7.94
2023-02-04T08:57:27.811Z,8.02
2023-02-04T08:59:57.090Z,8.55
2023-02-04T09:02:24.915Z,7.80
2023-02-04T09:04:52.643Z,8.55
2023-02-04T09:07:21.012Z,8.02
2023-02-04T09:09:48.748Z,9.20
2023-02-04T09:12:16.501Z,8.67
2023-02-04T09:14:44.235Z,7.80
2023-02-04T09:17:13.351Z,8.31
2023-02-04T09:19:41.043Z,8.25
2023-02-04T09:22:08.752Z,8.23
2023-02-04T09:24:36.538Z,8.71
2023-02-04T09:27:04.298Z,7.64
2023-02-04T09:29:32.620Z,8.35
2023-02-04T09:32:00.409Z,7.69
2023-02-04T09:34:29.942Z,6.58
2023-02-04T09:36:57.673Z,7.08
2023-02-04T09:39:25.461Z,7.49
2023-02-04T09:41:55.090Z,7.41
2023-02-04T09:44:27.424Z,7.90
2023-02-04T09:46:58.197Z,7.34
2023-02-04T09:49:26.589Z,7.99
2023-02-04T09:51:56.698Z,8.88
2023-02-04T09:54:25.396Z,8.30
2023-02-04T09:56:53.859Z,7.68
2023-02-04T09:59:24.390Z,8.30
2023-02-04T10:01:58.520Z,9.02
2023-02-04T10:04:26.451Z,7.63
2023-02-04T10:06:58.636Z,7.67
2023-02-04T10:09:26.422Z,8.43
2023-02-04T10:11:54.345Z,7.96
2023-02-04T10:14:24.579Z,8.53
2023-02-04T10:16:58.852Z,9.01
2023-02-04T10:19:29.670Z,9.87
2023-02-04T10:21:59.622Z,9.56
2023-02-04T10:24:30.563Z,9.59
2023-02-04T10:27:09.482Z,9.32
2023-02-04T10:29:37.377Z,9.50
2023-02-04T10:32:05.340Z,9.82
2023-02-04T10:34:37.782Z,10.25
2023-02-04T10:37:21.092Z,10.54
2023-02-04T10:39:49.925Z,10.27
2023-02-04T10:42:23.208Z,9.55
2023-02-04T10:44:51.265Z,9.52
2023-02-04T10:47:20.484Z,11.74
2023-02-04T10:49:57.095Z,10.30
2023-02-04T10:52:32.195Z,9.61
2023-02-04T10:54:59.996Z,10.11
2023-02-04T10:57:30.479Z,11.11
2023-02-04T11:00:01.093Z,10.31
2023-02-04T11:02:38.321Z,11.11
2023-02-04T11:05:12.426Z,10.89
2023-02-04T11:07:41.734Z,12.77
2023-02-04T11:10:18.149Z,12.27
2023-02-04T11:12:48.907Z,12.49
2023-02-04T11:15:40.106Z,12.23
2023-02-04T11:18:10.522Z,12.18
2023-02-04T11:20:40.799Z,8.90
2023-02-04T11:23:35.065Z,8.09
2023-02-04T11:26:08.565Z,8.36
2023-02-04T11:28:52.300Z,7.79
2023-02-04T11:31:40.804Z,9.40
2023-02-04T11:34:26.605Z,8.53
2023-02-04T11:37:20.356Z,8.16
2023-02-04T11:39:51.587Z,8.75
2023-02-04T11:42:22.520Z,8.21
2023-02-04T11:44:52.408Z,10.24
2023-02-04T11:47:20.587Z,9.94
2023-02-04T11:49:55.939Z,12.02
2023-02-04T11:52:23.819Z,12.02
2023-02-04T11:54:57.099Z,12.16
2023-02-04T11:57:25.248Z,10.72
2023-02-04T11:59:53.153Z,11.83
2023-02-04T12:02:23.276Z,12.43
2023-02-04T12:04:56.123Z,11.39
2023-02-04T12:07:28.161Z,9.86
2023-02-04T12:09:58.047Z,10.43
2023-02-04T12:12:28.855Z,10.54
2023-02-04T12:15:18.760Z,10.03
2023-02-04T12:17:46.836Z,10.78
2023-02-04T12:20:15.358Z,10.72
2023-02-04T12:22:43.079Z,11.27
2023-02-04T12:25:16.809Z,11.73
2023-02-04T12:27:44.585Z,11.52
2023-02-04T12:30:13.524Z,11.02
2023-02-04T12:32:41.365Z,8.97
2023-02-04T12:35:09.900Z,10.16
2023-02-04T12:37:37.662Z,12.10
2023-02-04T12:40:06.093Z,11.74
2023-02-04T12:42:35.194Z,11.99
2023-02-04T12:45:02.951Z,9.73
2023-02-04T12:47:30.677Z,9.78
2023-02-04T12:49:58.421Z,10.89
2023-02-04T12:52:26.168Z,7.08
2023-02-04T12:54:53.893Z,8.69
2023-02-04T12:57:21.639Z,9.61
2023-02-04T12:59:50.863Z,10.58
2023-02-04T13:02:18.691Z,10.84
2023-02-04T13:04:46.437Z,10.70
2023-02-04T13:07:14.308Z,9.18
2023-02-04T13:26:51.957Z,9.37
2023-02-04T13:29:19.961Z,9.39
2023-02-04T13:31:47.728Z,9.17
2023-02-04T13:34:15.734Z,8.54
2023-02-04T13:36:44.504Z,8.05
2023-02-04T13:39:12.276Z,8.56
2023-02-04T13:41:40.743Z,8.72
2023-02-04T13:44:10.079Z,8.56
2023-02-04T13:46:37.825Z,8.29
2023-02-04T13:49:05.695Z,8.57
2023-02-04T13:51:33.480Z,8.76
2023-02-04T13:54:01.240Z,8.87
2023-02-04T13:56:29.419Z,7.93
2023-02-04T13:58:57.164Z,8.30
2023-02-04T14:01:26.273Z,9.30
2023-02-04T14:03:54.008Z,9.99
2023-02-04T14:06:22.095Z,10.10
2023-02-04T14:08:50.007Z,10.73
2023-02-04T14:11:18.179Z,11.15
2023-02-04T14:43:37.268Z,9.23
2023-02-04T14:46:05.993Z,9.69
2023-02-04T14:48:34.333Z,9.70
2023-02-04T14:51:02.046Z,10.19
2023-02-04T14:53:29.752Z,10.73
2023-02-04T14:55:57.456Z,10.29
2023-02-04T14:58:27.841Z,9.99
2023-02-04T15:00:57.541Z,7.91
2023-02-04T15:03:25.276Z,8.72
2023-02-04T15:05:53.099Z,7.45
2023-02-04T15:08:21.105Z,7.10
2023-02-04T15:10:48.824Z,7.21
2023-02-04T15:13:16.704Z,7.10
2023-02-04T15:15:44.466Z,7.33
2023-02-04T15:18:13.967Z,7.40
2023-02-04T15:20:41.692Z,6.95
2023-02-04T15:23:13.015Z,6.67
2023-02-04T15:25:43.649Z,5.77
2023-02-04T15:28:12.292Z,5.94
2023-02-04T15:30:41.839Z,6.54
2023-02-04T15:33:09.615Z,5.90
2023-02-04T15:35:40.168Z,6.01
2023-02-04T15:38:07.883Z,5.72
2023-02-04T15:40:35.764Z,5.43
2023-02-04T15:43:03.521Z,5.13
2023-02-04T15:45:31.338Z,4.83
2023-02-04T15:47:59.052Z,4.29
2023-02-04T15:50:26.791Z,4.87
2023-02-04T15:52:55.979Z,4.73
2023-02-04T15:55:23.725Z,4.94
2023-02-04T15:57:51.477Z,4.23
2023-02-04T16:00:19.613Z,4.21
2023-02-04T16:02:47.365Z,4.10
2023-02-04T16:05:15.404Z,4.31
2023-02-04T16:07:43.102Z,4.36
2023-02-04T16:10:12.386Z,3.83
2023-02-04T16:12:40.114Z,4.12
2023-02-04T16:15:08.640Z,4.34
2023-02-04T16:17:36.533Z,3.76
2023-02-04T16:20:04.670Z,4.07
2023-02-04T16:22:32.463Z,3.89
2023-02-04T16:25:00.235Z,3.43
2023-02-04T16:27:29.873Z,3.92
2023-02-04T16:29:57.598Z,3.62
2023-02-04T16:32:25.320Z,4.09
2023-02-04T16:34:53.662Z,4.42
2023-02-04T16:37:21.403Z,4.26
2023-02-04T16:39:51.513Z,4.41
2023-02-04T16:42:19.318Z,4.05
2023-02-04T16:44:48.446Z,4.20
2023-02-04T16:47:16.155Z,3.93
2023-02-04T16:49:44.818Z,4.08
2023-02-04T16:52:12.672Z,3.78
2023-02-04T16:54:40.392Z,3.75
2023-02-04T16:57:08.130Z,3.67
2023-02-04T16:59:38.223Z,3.79
2023-02-04T17:02:07.689Z,3.67
2023-02-04T17:04:35.484Z,3.60
2023-02-04T17:07:03.240Z,3.41
2023-02-04T17:09:31.044Z,3.79
2023-02-04T17:11:59.019Z,3.02
2023-02-04T17:14:26.747Z,2.90
2023-02-04T17:16:54.469Z,2.85
2023-02-04T17:19:24.320Z,2.96
2023-02-04T17:21:52.059Z,3.28
2023-02-04T17:24:19.779Z,3.18
2023-02-04T17:26:47.530Z,3.05
2023-02-04T17:29:17.919Z,2.84
2023-02-04T17:31:45.717Z,2.62
2023-02-04T17:34:13.571Z,3.24
2023-02-04T17:36:42.671Z,3.15
2023-02-04T17:39:10.460Z,2.94
2023-02-04T17:41:38.188Z,2.55
2023-02-04T17:44:06.526Z,2.58
2023-02-04T17:46:34.827Z,2.43
2023-02-04T17:49:03.097Z,2.99
2023-02-04T17:51:30.833Z,2.62
2023-02-04T17:53:59.964Z,2.07
2023-02-04T17:56:27.852Z,2.44
2023-02-04T17:58:56.336Z,1.99
2023-02-04T18:01:25.343Z,1.87
2023-02-04T18:03:53.271Z,2.20
2023-02-04T18:06:23.430Z,1.99
2023-02-04T18:08:52.781Z,2.12
2023-02-04T18:11:27.395Z,2.45
2023-02-04T18:13:58.533Z,2.44
2023-02-04T18:16:28.947Z,2.38
2023-02-04T18:19:03.625Z,2.44
2023-02-04T18:21:32.944Z,2.63
2023-02-04T18:24:17.427Z,2.78
2023-02-04T18:26:49.343Z,2.77
2023-02-04T18:29:34.556Z,2.76
2023-02-04T18:32:16.642Z,2.61
2023-02-04T18:34:48.807Z,2.43
2023-02-04T18:37:31.473Z,2.56
2023-02-04T18:40:25.483Z,2.87
2023-02-04T18:43:06.195Z,2.73
2023-02-04T18:45:35.583Z,2.73
2023-02-04T18:48:56.262Z,2.86
2023-02-04T18:51:28.247Z,2.78
2023-02-04T18:54:00.992Z,2.27
2023-02-04T18:56:33.466Z,2.42
2023-02-04T18:59:02.732Z,2.74
2023-02-04T19:01:37.013Z,2.36
2023-02-04T19:04:15.725Z,2.39
2023-02-04T19:06:48.367Z,2.01
2023-02-04T19:09:45.120Z,1.83
2023-02-04T19:12:21.355Z,1.78
2023-02-04T19:14:50.557Z,1.70
2023-02-04T19:17:26.470Z,1.60
2023-02-04T19:19:57.707Z,2.04
2023-02-04T19:22:37.099Z,2.36
2023-02-04T19:25:26.986Z,2.09
2023-02-04T19:27:56.737Z,2.22
2023-02-04T19:30:50.845Z,2.36
2023-02-04T19:33:26.458Z,2.43
2023-02-04T19:35:55.591Z,2.19
2023-02-04T19:38:37.866Z,2.18
2023-02-04T19:41:25.117Z,2.68
2023-02-04T19:43:56.004Z,2.49
2023-02-04T19:46:26.715Z,2.41
2023-02-04T19:48:54.605Z,2.21
2023-02-04T19:51:28.079Z,2.22
2023-02-04T19:54:02.526Z,1.85
2023-02-04T19:56:35.037Z,1.75
2023-02-04T19:59:19.346Z,1.96
2023-02-04T20:01:48.708Z,2.06
2023-02-04T20:04:21.564Z,2.09
2023-02-04T20:06:49.748Z,1.94
2023-02-04T20:09:19.652Z,1.64
2023-02-04T20:11:58.886Z,2.39
2023-02-04T20:14:49.327Z,2.39
2023-02-04T20:17:39.793Z,2.94
2023-02-04T20:20:20.183Z,2.17
2023-02-04T20:22:56.106Z,1.95
2023-02-04T20:25:58.516Z,3.66
2023-02-04T20:28:36.880Z,3.73
2023-02-04T20:31:19.934Z,3.63
2023-02-04T20:33:51.809Z,3.74
2023-02-04T20:36:34.419Z,3.24
2023-02-04T20:39:36.305Z,2.62
2023-02-04T20:42:36.060Z,2.26
2023-02-04T20:45:22.659Z,1.41
2023-02-04T20:47:53.312Z,1.09
2023-02-04T20:50:40.434Z,1.18
2023-02-04T20:53:38.158Z,1.12
2023-02-04T20:56:25.643Z,1.09
2023-02-04T20:58:56.811Z,1.14
2023-02-04T21:01:32.931Z,1.19
2023-02-04T21:04:16.328Z,1.23
2023-02-04T21:06:53.546Z,1.18
2023-02-04T21:09:24.735Z,1.11
2023-02-04T21:11:54.136Z,0.89
2023-02-04T21:14:26.200Z,0.91
2023-02-04T21:16:56.174Z,0.34
2023-02-04T21:19:27.799Z,0.65
2023-02-04T21:21:57.981Z,0.47
2023-02-04T21:24:26.099Z,1.12
2023-02-04T21:26:54.290Z,0.85
2023-02-04T21:29:26.074Z,0.49
2023-02-04T21:31:54.636Z,0.54
2023-02-04T21:34:22.623Z,0.77
2023-02-04T21:36:50.446Z,0.53
2023-02-04T21:39:20.774Z,0.32
2023-02-04T21:42:08.568Z,0.17
2023-02-04T21:44:36.386Z,0.71
2023-02-04T21:47:04.472Z,0.92
2023-02-04T21:49:32.557Z,1.05
2023-02-04T21:52:00.254Z,0.74
2023-02-04T21:54:29.360Z,0.65
2023-02-04T21:56:57.085Z,0.71
2023-02-04T21:59:25.227Z,0.95
2023-02-04T22:01:53.079Z,0.75
2023-02-04T22:04:20.843Z,0.07
2023-02-04T22:06:50.244Z,0.23
2023-02-04T22:09:18.189Z,0.50
2023-02-04T22:11:48.285Z,0.20
2023-02-04T22:14:33.446Z,0.36
2023-02-04T22:17:01.235Z,0.81
2023-02-04T22:19:28.990Z,0.64
2023-02-04T22:21:56.764Z,0.67
2023-02-04T22:24:24.625Z,0.91
2023-02-04T22:26:53.821Z,1.01
2023-02-04T22:29:24.959Z,0.75
2023-02-04T22:31:53.027Z,0.56
2023-02-04T22:34:26.863Z,0.47
2023-02-04T22:36:55.524Z,0.73
2023-02-04T22:39:23.280Z,0.82
2023-02-04T22:41:51.106Z,0.88
2023-02-04T22:44:20.227Z,0.83
2023-02-04T22:46:48.079Z,1.25
2023-02-04T22:49:16.084Z,1.09
2023-02-04T22:51:43.993Z,1.17
2023-02-04T22:54:11.818Z,1.04
2023-02-04T22:56:39.607Z,1.35
2023-02-04T22:59:07.368Z,1.21
2023-02-04T23:01:36.736Z,1.12
2023-02-04T23:04:07.302Z,0.53
2023-02-04T23:06:35.234Z,0.88
2023-02-04T23:09:02.990Z,1.05
2023-02-04T23:11:33.086Z,0.73
2023-02-04T23:14:05.418Z,1.03
2023-02-04T23:16:33.531Z,1.60
2023-02-04T23:19:02.821Z,1.15
2023-02-04T23:21:30.800Z,1.48
2023-02-04T23:24:00.133Z,1.46
2023-02-04T23:26:27.978Z,1.42
2023-02-04T23:29:00.856Z,1.41
2023-02-04T23:31:28.922Z,1.43
2023-02-04T23:33:56.745Z,1.14
2023-02-04T23:36:26.087Z,1.38
2023-02-04T23:38:53.916Z,1.26
2023-02-04T23:41:21.673Z,1.31
2023-02-04T23:43:49.415Z,1.23
2023-02-04T23:46:17.209Z,1.41
2023-02-04T23:48:44.946Z,0.95
2023-02-04T23:51:12.741Z,0.84
2023-02-04T23:53:41.856Z,0.92
2023-02-04T23:56:09.699Z,0.81
2023-02-04T23:58:37.424Z,0.81
